Language selection

My Weather Profile Weather Topics  | 

Pacific - North Coast: Past 24 Hour Conditions

 

Kindakun Rocks

10:00 AM PST 27 November 2022
Disclaimer

This table is a summary of hourly weather conditions for the past 24 hours.
Please note that these observations might not always be representative of weather conditions over their associated marine area.

Date / Time
(PST)
Wind(knots) Conditions Visibility(km) Pressure(kPa) Air tempC) Relative humidity(%) Dew pointC)
27 November 2022
10:00 calm N/A N/A 101.5 5 80 2
9:00 NNW 2 N/A N/A 101.5 5 76 1
8:00 NNE 3 N/A N/A 101.5 5 81 2
7:00 N 9 gust 15 N/A N/A 101.5 5 76 1
6:00 NNE 8 N/A N/A 101.4 5 79 2
5:00 N 8 N/A N/A 101.3 5 85 3
4:00 NNW 10 gust 15 N/A N/A 101.3 5 85 3
3:00 NNW 15 gust 21 N/A N/A 101.2 6 79 3
2:00 WNW 12 gust 19 N/A N/A 101.3 5 84 3
1:00 NW 18 N/A N/A 101.3 6 72 1
0:00 W 21 N/A N/A 101.3 5 78 2
26 November 2022
23:00 WNW 19 gust 35 N/A N/A 101.4 5 81 2
22:00 NW 23 gust 29 N/A N/A 101.3 6 79 3
21:00 WNW 21 gust 27 N/A N/A 101.3 6 77 2
20:00 NW 18 gust 23 N/A N/A 101.3 4 81 1
19:00 NNW 21 gust 31 N/A N/A 101.2 5 81 2
18:00 WNW 28 gust 33 N/A N/A 101.3 3 86 1
17:00 WNW 33 gust 38 N/A N/A 101.3 6 77 2
16:00 WNW 25 gust 39 N/A N/A 101.2 5 77 1
15:00 NNW 22 gust 28 N/A N/A 101.2 5 84 2
14:00 WNW 31 gust 37 N/A N/A 101.2 5 71 1
13:00 WNW 26 gust 32 N/A N/A 101.1 6 70 1
12:00 WNW 31 N/A N/A 101.1 5 76 2
11:00 WNW 27 N/A N/A 101.1 5 78 2
10:00 WNW 31 gust 37 N/A N/A 101.0 6 73 2

Zoom-in to make a selection

Map of Pacific - North Coast marine weather areas Middle Nomad - 46004 South Nomad - 46036 Dixon Entrance Central - 46145 South Moresby - 46147 Nanakwa Shoal - 46181 North Hecate Strait - 46183 North Nomad - 46184 South Hecate Strait - 46185 West Sea Otter - 46204 West Dixon Entrance - 46205 East Dellwood - 46207 West Moresby - 46208 Sartine Island Cape St.James Kindakun Rocks Langara Island Masset Municipal Airport Rose Spit Sandspit Airport Bella Bella Airport Bella Coola Airport Bonilla Island Cathedral Point Cumshewa Island Grey Islet Holland Rock Lucy Islands Lightstation Prince Rupert Airport
Legend:
buoy Buoy
land station Land Station

Pacific - North Coast Area

Another Region

What we are doing

Date modified: